Time;durP1;ratioP1;P1;durP2;ratioP2;P2;SDS_P1;SDS_P2;PMS_P1;PMS_P2;Temp;Humidity;BMP_temperature;BMP_pressure;BME280_temperature;BME280_humidity;BME280_pressure;Samples;Min_cycle;Max_cycle;Signal;HPM_P1;HPM_P2
2023/08/03 00:01:38;;;;;;;9.00;3.22;;;16.40;99.90;;;;;;5174785;27;20269;-89
2023/08/03 00:04:09;;;;;;;10.05;3.60;;;16.60;99.90;;;;;;5158652;27;20222;-89
2023/08/03 00:06:44;;;;;;;6.05;2.95;;;16.60;99.90;;;;;;5158266;27;20177;-88
2023/08/03 00:09:15;;;;;;;10.45;3.33;;;16.70;99.90;;;;;;5166265;27;20204;-86
2023/08/03 00:11:45;;;;;;;9.60;3.22;;;16.80;99.90;;;;;;5168426;27;20203;-87
2023/08/03 00:14:16;;;;;;;9.98;3.80;;;17.00;99.90;;;;;;5157304;27;20199;-86
2023/08/03 00:16:48;;;;;;;7.15;3.20;;;17.10;99.90;;;;;;5159191;27;20229;-86
2023/08/03 00:19:21;;;;;;;10.75;3.85;;;17.10;99.90;;;;;;5146690;27;20186;-87
2023/08/03 00:21:56;;;;;;;10.63;3.50;;;17.10;99.90;;;;;;5149694;27;20232;-85
2023/08/03 00:24:27;;;;;;;9.50;3.17;;;17.30;99.90;;;;;;5154278;27;20217;-86
2023/08/03 00:26:59;;;;;;;8.18;3.08;;;17.40;99.90;;;;;;5142287;27;20249;-85
2023/08/03 00:29:30;;;;;;;10.90;3.60;;;17.50;99.90;;;;;;5146430;27;20201;-87
2023/08/03 00:32:01;;;;;;;9.02;2.97;;;17.60;99.90;;;;;;5135920;27;20185;-86
2023/08/03 00:34:32;;;;;;;8.90;3.30;;;17.60;99.90;;;;;;5135735;27;20190;-86
2023/08/03 00:37:05;;;;;;;11.40;2.80;;;17.80;99.90;;;;;;5135819;27;20194;-86
2023/08/03 00:39:36;;;;;;;6.97;2.47;;;17.90;99.90;;;;;;5159790;27;20209;-88
2023/08/03 00:42:08;;;;;;;7.50;2.20;;;18.00;99.90;;;;;;5151375;27;20587;-87
2023/08/03 00:44:41;;;;;;;6.30;1.95;;;18.20;99.90;;;;;;5137578;27;20212;-87
2023/08/03 00:47:11;;;;;;;6.35;2.05;;;18.20;99.90;;;;;;5136546;27;20190;-87
2023/08/03 00:49:42;;;;;;;5.07;2.22;;;18.30;99.90;;;;;;5135767;27;20198;-86
2023/08/03 00:52:16;;;;;;;7.78;2.40;;;18.40;99.90;;;;;;5135723;27;20208;-86
2023/08/03 00:54:48;;;;;;;8.65;1.90;;;18.50;99.90;;;;;;5135753;27;20205;-86
2023/08/03 00:57:20;;;;;;;4.63;1.60;;;18.60;99.90;;;;;;5135591;27;20201;-86
2023/08/03 00:59:51;;;;;;;5.30;1.70;;;18.70;99.90;;;;;;5135937;27;20197;-87
2023/08/03 01:02:22;;;;;;;4.95;1.55;;;18.90;99.90;;;;;;5135221;27;20222;-87
2023/08/03 01:04:53;;;;;;;6.40;1.77;;;19.10;99.90;;;;;;5144164;27;20188;-86
2023/08/03 01:07:29;;;;;;;5.05;1.80;;;19.20;99.90;;;;;;5143165;27;20198;-86
2023/08/03 01:10:01;;;;;;;3.38;1.45;;;19.30;99.90;;;;;;5164465;27;20224;-86
2023/08/03 01:12:32;;;;;;;6.32;1.88;;;19.30;99.90;;;;;;5158239;27;20663;-86
2023/08/03 01:15:03;;;;;;;4.68;1.60;;;19.40;99.90;;;;;;5137480;27;20220;-87
2023/08/03 01:17:34;;;;;;;3.58;1.35;;;19.40;99.90;;;;;;5136574;27;20236;-87
2023/08/03 01:20:05;;;;;;;5.40;1.42;;;19.40;99.90;;;;;;5152225;27;20199;-86
2023/08/03 01:22:45;;;;;;;4.90;1.52;;;19.50;99.90;;;;;;5156095;27;20228;-86
2023/08/03 01:25:16;;;;;;;6.47;1.85;;;19.60;99.90;;;;;;5154694;27;20219;-88
2023/08/03 01:27:49;;;;;;;6.18;1.60;;;19.70;99.90;;;;;;5155514;27;20280;-87
2023/08/03 01:30:20;;;;;;;5.50;1.33;;;19.70;99.90;;;;;;5153305;27;20189;-87
2023/08/03 01:32:51;;;;;;;4.68;1.58;;;19.80;99.90;;;;;;5144428;27;20209;-88
2023/08/03 01:35:23;;;;;;;5.05;1.48;;;19.90;99.90;;;;;;5135207;27;20566;-89
2023/08/03 01:37:56;;;;;;;3.38;1.55;;;20.00;99.90;;;;;;5138279;27;20205;-86
2023/08/03 01:40:28;;;;;;;5.60;1.73;;;20.20;99.90;;;;;;5134507;27;20762;-87
2023/08/03 01:42:59;;;;;;;4.47;1.63;;;20.30;99.90;;;;;;5136375;27;20605;-87
2023/08/03 01:45:32;;;;;;;4.60;1.55;;;20.10;99.90;;;;;;5135497;27;20623;-89
2023/08/03 01:48:03;;;;;;;4.18;1.50;;;20.20;99.90;;;;;;5138393;27;20193;-90
2023/08/03 01:50:35;;;;;;;4.00;1.50;;;20.30;99.90;;;;;;5138970;27;20660;-91
2023/08/03 01:53:08;;;;;;;4.30;1.20;;;20.30;99.90;;;;;;5137932;27;20403;-87
2023/08/03 01:55:40;;;;;;;2.40;1.38;;;20.30;99.90;;;;;;5159176;27;20209;-89
2023/08/03 01:58:12;;;;;;;4.10;1.38;;;20.20;99.90;;;;;;5158169;27;20185;-89
2023/08/03 02:00:44;;;;;;;3.63;1.38;;;20.20;99.90;;;;;;5158493;27;20197;-91
2023/08/03 02:03:15;;;;;;;4.55;1.85;;;20.30;99.90;;;;;;5149066;27;20224;-90
2023/08/03 02:05:49;;;;;;;5.20;1.60;;;20.50;99.90;;;;;;5150016;27;20186;-91
2023/08/03 02:08:24;;;;;;;2.75;1.42;;;20.50;99.90;;;;;;5147586;27;20257;-91
2023/08/03 02:10:56;;;;;;;5.32;1.58;;;20.50;99.90;;;;;;5158244;27;20197;-90
2023/08/03 02:13:27;;;;;;;5.63;1.40;;;20.50;99.90;;;;;;5158838;27;20201;-91
2023/08/03 02:18:43;;;;;;;7.43;1.80;;;20.60;99.90;;;;;;5114510;28;20197;-90
2023/08/03 02:21:13;;;;;;;4.05;1.60;;;20.80;99.90;;;;;;5122194;28;20452;-92
2023/08/03 02:23:48;;;;;;;5.78;1.70;;;21.00;99.90;;;;;;5127149;28;20215;-90
2023/08/03 02:26:19;;;;;;;5.85;1.85;;;21.10;99.90;;;;;;5123496;28;20224;-89
2023/08/03 02:28:51;;;;;;;3.45;1.55;;;21.10;99.90;;;;;;5100950;28;20280;-91
2023/08/03 02:31:23;;;;;;;4.55;1.50;;;21.20;99.90;;;;;;5096774;28;20206;-90
2023/08/03 02:33:54;;;;;;;6.68;1.50;;;21.20;99.90;;;;;;5097244;28;20207;-89
2023/08/03 02:36:28;;;;;;;4.80;1.70;;;21.30;99.90;;;;;;5097660;28;20195;-90
2023/08/03 02:39:02;;;;;;;4.90;1.65;;;21.40;99.90;;;;;;5099912;28;20191;-88
2023/08/03 02:41:34;;;;;;;3.95;1.85;;;21.30;99.90;;;;;;5098637;28;20523;-89
2023/08/03 02:44:05;;;;;;;8.02;1.70;;;21.40;99.90;;;;;;5093870;28;20196;-90
2023/08/03 02:46:37;;;;;;;5.93;1.83;;;21.40;99.90;;;;;;5094158;28;20282;-90
2023/08/03 02:49:09;;;;;;;5.28;2.20;;;21.50;99.90;;;;;;5097022;28;20199;-90
2023/08/03 02:51:39;;;;;;;4.35;1.70;;;21.50;99.90;;;;;;5100109;28;20270;-90
2023/08/03 02:54:13;;;;;;;4.15;1.60;;;21.50;99.90;;;;;;5097704;28;20196;-91
2023/08/03 02:56:44;;;;;;;4.65;1.95;;;21.50;99.90;;;;;;5093178;28;20645;-90
2023/08/03 02:59:18;;;;;;;5.20;2.08;;;21.60;99.90;;;;;;5093611;28;20198;-91
2023/08/03 03:01:49;;;;;;;3.58;1.50;;;21.70;99.90;;;;;;5096847;28;20219;-91
2023/08/03 03:04:22;;;;;;;5.55;1.75;;;21.70;99.90;;;;;;5096705;28;20203;-91
2023/08/03 03:06:54;;;;;;;4.18;1.17;;;21.80;99.90;;;;;;5099284;28;20223;-90
2023/08/03 03:09:29;;;;;;;2.30;1.48;;;21.90;99.90;;;;;;5097434;28;20552;-89
2023/08/03 03:12:00;;;;;;;5.28;2.08;;;21.90;99.90;;;;;;5117522;28;20226;-89
2023/08/03 03:14:30;;;;;;;5.18;2.08;;;21.80;99.90;;;;;;5135837;28;20201;-91
2023/08/03 03:17:03;;;;;;;5.32;2.28;;;21.90;99.90;;;;;;5127208;27;20224;-91
2023/08/03 03:19:34;;;;;;;3.38;2.10;;;21.90;99.90;;;;;;5138086;27;20210;-90
2023/08/03 03:22:05;;;;;;;4.20;2.00;;;22.00;99.90;;;;;;5146785;27;20221;-89
2023/08/03 03:24:39;;;;;;;5.05;3.17;;;22.20;99.90;;;;;;5139393;27;20200;-90
2023/08/03 03:27:12;;;;;;;8.25;5.68;;;22.20;99.90;;;;;;5146950;27;20292;-90
2023/08/03 03:29:43;;;;;;;9.95;5.40;;;22.20;99.90;;;;;;5159071;27;20220;-91
2023/08/03 03:32:13;;;;;;;9.88;5.85;;;22.00;99.90;;;;;;5159142;27;20197;-90
2023/08/03 03:34:45;;;;;;;7.43;4.57;;;22.10;99.90;;;;;;5159397;27;20197;-90
2023/08/03 03:37:17;;;;;;;8.02;4.18;;;22.10;99.90;;;;;;5160986;27;20208;-90
2023/08/03 03:39:52;;;;;;;6.03;3.47;;;22.10;99.90;;;;;;5134653;27;20456;-90
2023/08/03 03:42:23;;;;;;;6.53;4.05;;;22.10;99.90;;;;;;5154244;27;20213;-91
2023/08/03 03:44:54;;;;;;;10.60;4.20;;;22.10;99.90;;;;;;5145976;27;20194;-89
2023/08/03 03:47:24;;;;;;;10.02;4.03;;;22.00;99.90;;;;;;5139515;27;20219;-91
2023/08/03 03:49:55;;;;;;;5.60;3.20;;;22.10;99.90;;;;;;5138210;27;20208;-90
2023/08/03 03:52:26;;;;;;;5.32;3.17;;;22.10;99.90;;;;;;5136624;27;20186;-92
2023/08/03 03:55:00;;;;;;;6.53;3.15;;;22.20;99.90;;;;;;5142015;27;20189;-90
2023/08/03 03:57:32;;;;;;;5.65;2.00;;;22.20;99.90;;;;;;5138099;27;20186;-90
2023/08/03 04:00:04;;;;;;;7.45;2.03;;;22.20;99.90;;;;;;5140702;27;20197;-91
2023/08/03 04:02:36;;;;;;;7.43;1.88;;;22.20;99.90;;;;;;5149930;27;20263;-89
2023/08/03 04:05:07;;;;;;;5.72;1.80;;;22.10;99.90;;;;;;5148351;27;20204;-91
2023/08/03 04:07:38;;;;;;;5.63;1.90;;;22.00;99.90;;;;;;5142512;27;20194;-89
2023/08/03 04:10:12;;;;;;;3.90;1.58;;;21.90;99.90;;;;;;5138418;27;20598;-91
2023/08/03 04:12:44;;;;;;;8.45;2.00;;;21.80;99.90;;;;;;5138532;27;20211;-90
2023/08/03 04:15:15;;;;;;;3.78;1.30;;;21.80;99.90;;;;;;5150278;27;20206;-89
2023/08/03 04:17:48;;;;;;;4.85;1.30;;;21.80;99.90;;;;;;5138180;27;20236;-91
2023/08/03 04:20:19;;;;;;;6.90;1.80;;;21.70;99.90;;;;;;5165077;27;20197;-91
2023/08/03 04:22:50;;;;;;;6.35;1.70;;;21.80;99.90;;;;;;5176648;27;20291;-91
2023/08/03 04:25:24;;;;;;;8.25;1.80;;;21.70;99.90;;;;;;5170843;27;20178;-92
2023/08/03 04:27:55;;;;;;;5.53;2.10;;;21.70;99.90;;;;;;5159484;27;20250;-92
2023/08/03 04:30:26;;;;;;;4.97;1.40;;;21.60;99.90;;;;;;5158129;27;20186;-93
2023/08/03 04:32:57;;;;;;;6.72;1.70;;;21.50;99.90;;;;;;5159164;27;20173;-91
2023/08/03 04:35:29;;;;;;;3.25;1.50;;;21.50;99.90;;;;;;5157936;27;20286;-90
2023/08/03 04:38:01;;;;;;;5.65;2.00;;;21.40;99.90;;;;;;5156498;27;20213;-90
2023/08/03 04:40:35;;;;;;;5.55;1.70;;;21.30;99.90;;;;;;5169364;27;20185;-91
2023/08/03 04:43:06;;;;;;;5.03;1.50;;;21.20;99.90;;;;;;5119937;27;20227;-92
2023/08/03 04:45:39;;;;;;;5.28;1.77;;;21.10;99.90;;;;;;5144341;27;20216;-89
2023/08/03 04:48:09;;;;;;;4.50;1.52;;;21.10;99.90;;;;;;5149271;27;20430;-89
2023/08/03 04:50:41;;;;;;;8.70;2.25;;;21.10;99.90;;;;;;5141956;27;20255;-90
2023/08/03 04:53:13;;;;;;;5.20;1.67;;;21.00;99.90;;;;;;5154459;27;20202;-90
2023/08/03 04:55:47;;;;;;;6.03;1.80;;;21.10;99.90;;;;;;5132282;27;20201;-89
2023/08/03 04:58:20;;;;;;;9.00;2.30;;;21.00;99.90;;;;;;5145715;27;20246;-90
2023/08/03 05:00:51;;;;;;;7.18;2.10;;;21.00;99.90;;;;;;5146117;27;20637;-89
2023/08/03 05:03:23;;;;;;;4.20;1.77;;;21.00;99.90;;;;;;5137490;27;20225;-88
2023/08/03 05:05:54;;;;;;;5.97;1.60;;;21.00;99.90;;;;;;5141230;27;20190;-88
2023/08/03 05:08:25;;;;;;;3.47;1.40;;;20.90;99.90;;;;;;5167415;27;20204;-88
2023/08/03 05:10:59;;;;;;;5.00;1.80;;;21.00;99.90;;;;;;5150130;27;20190;-90
2023/08/03 05:13:31;;;;;;;4.03;1.98;;;21.00;99.90;;;;;;5135168;27;20648;-89
2023/08/03 05:16:02;;;;;;;9.23;1.80;;;21.00;99.90;;;;;;5135402;27;20198;-89
2023/08/03 05:18:35;;;;;;;5.68;1.50;;;21.00;99.90;;;;;;5135314;27;20729;-90
2023/08/03 05:21:06;;;;;;;5.45;1.95;;;20.90;99.90;;;;;;5133922;27;20212;-88
2023/08/03 05:23:38;;;;;;;4.55;1.60;;;20.90;99.90;;;;;;5146623;27;20217;-90
2023/08/03 05:26:14;;;;;;;5.20;1.70;;;20.90;99.90;;;;;;5155317;27;20200;-90
2023/08/03 05:28:45;;;;;;;5.20;1.67;;;20.90;99.90;;;;;;5153132;27;20193;-90
2023/08/03 05:31:15;;;;;;;5.63;1.65;;;20.90;99.90;;;;;;5135798;27;20200;-89
2023/08/03 05:33:47;;;;;;;4.50;1.67;;;20.90;99.90;;;;;;5144582;27;20193;-90
2023/08/03 05:36:19;;;;;;;7.28;1.60;;;20.80;99.90;;;;;;5144290;27;20219;-92
2023/08/03 05:38:54;;;;;;;5.78;1.88;;;20.80;99.90;;;;;;5135189;27;20190;-90
2023/08/03 05:41:27;;;;;;;5.20;1.83;;;20.80;99.90;;;;;;5135320;27;20721;-90
2023/08/03 05:43:58;;;;;;;5.57;1.88;;;20.80;99.90;;;;;;5137368;27;20795;-91
2023/08/03 05:46:34;;;;;;;6.32;1.85;;;20.80;99.90;;;;;;5119808;27;20198;-91
2023/08/03 05:49:05;;;;;;;4.57;1.83;;;20.80;99.90;;;;;;5151671;27;20276;-92
2023/08/03 05:51:36;;;;;;;3.17;1.55;;;20.90;99.90;;;;;;5154657;27;20201;-91
2023/08/03 05:54:08;;;;;;;3.95;1.90;;;21.00;99.90;;;;;;5147807;27;20208;-91
2023/08/03 05:56:41;;;;;;;6.28;1.95;;;20.90;99.90;;;;;;5136023;27;20208;-90
2023/08/03 05:59:21;;;;;;;5.93;1.80;;;20.90;99.90;;;;;;5137017;27;20208;-91
2023/08/03 06:01:53;;;;;;;4.70;1.58;;;20.90;99.90;;;;;;5135923;27;20202;-91
2023/08/03 06:04:25;;;;;;;8.25;1.90;;;20.90;99.90;;;;;;5134985;27;20285;-91
2023/08/03 06:06:55;;;;;;;5.20;2.10;;;20.90;99.90;;;;;;5141056;27;20674;-86
2023/08/03 06:09:27;;;;;;;4.18;1.70;;;20.90;99.90;;;;;;5152928;27;20274;-87
2023/08/03 06:12:00;;;;;;;4.53;1.65;;;21.00;99.90;;;;;;5151665;27;20200;-88
2023/08/03 06:14:32;;;;;;;5.65;1.83;;;21.00;99.90;;;;;;5165110;27;20197;-89
2023/08/03 06:17:03;;;;;;;4.45;1.50;;;21.10;99.90;;;;;;5146716;27;20248;-88
2023/08/03 06:19:35;;;;;;;4.95;1.88;;;21.10;99.90;;;;;;5141038;27;20214;-88
2023/08/03 06:22:15;;;;;;;5.13;1.70;;;21.20;99.90;;;;;;5133163;27;20224;-88
2023/08/03 06:24:46;;;;;;;5.75;1.90;;;21.30;99.90;;;;;;5138323;27;20196;-88
2023/08/03 06:27:20;;;;;;;4.40;1.70;;;21.40;99.90;;;;;;5157958;27;20200;-88
2023/08/03 06:29:52;;;;;;;4.22;1.70;;;21.50;99.90;;;;;;5158338;27;20536;-88
2023/08/03 06:32:28;;;;;;;4.03;1.48;;;21.50;99.90;;;;;;5160765;27;20563;-87
2023/08/03 06:34:59;;;;;;;5.43;1.77;;;21.50;99.90;;;;;;5156532;27;20212;-88
2023/08/03 06:37:34;;;;;;;4.97;1.92;;;21.30;99.90;;;;;;5147746;27;20193;-87
2023/08/03 06:40:06;;;;;;;4.35;1.95;;;21.20;99.90;;;;;;5157620;27;20188;-87
2023/08/03 06:42:39;;;;;;;10.55;2.17;;;21.00;99.90;;;;;;5156168;27;20213;-87
2023/08/03 06:45:33;;;;;;;5.22;2.00;;;21.00;99.90;;;;;;5158592;27;20197;-88
2023/08/03 06:48:09;;;;;;;5.57;1.70;;;20.70;99.90;;;;;;5138320;27;20197;-89
2023/08/03 06:50:40;;;;;;;5.95;1.90;;;20.60;99.90;;;;;;5138044;27;20193;-89
2023/08/03 06:53:12;;;;;;;4.07;1.92;;;20.60;99.90;;;;;;5149329;27;20561;-89
2023/08/03 06:55:48;;;;;;;7.57;2.40;;;20.40;99.90;;;;;;5158154;27;20197;-89
2023/08/03 06:58:21;;;;;;;7.20;2.03;;;20.30;99.90;;;;;;5157181;27;20196;-87
2023/08/03 07:00:53;;;;;;;6.35;2.15;;;20.30;99.90;;;;;;5158294;27;20561;-89
2023/08/03 07:03:27;;;;;;;5.72;1.95;;;20.10;99.90;;;;;;5148211;27;20229;-90
2023/08/03 07:19:50;;;;;;;5.38;2.50;;;19.50;99.90;;;;;;5154057;27;20214;-88
2023/08/03 07:22:28;;;;;;;4.80;2.45;;;19.40;99.90;;;;;;5165752;27;20183;-88
2023/08/03 07:27:47;;;;;;;6.80;2.50;;;19.30;99.90;;;;;;5158675;27;20265;-86
2023/08/03 07:38:36;;;;;;;4.63;1.65;;;19.10;99.90;;;;;;5142327;27;20194;-87
2023/08/03 07:41:26;;;;;;;5.20;2.03;;;19.10;99.90;;;;;;5147680;27;20288;-87
2023/08/03 08:16:04;;;;;;;4.93;1.75;;;18.60;99.90;;;;;;5082857;28;20192;-86
2023/08/03 08:18:41;;;;;;;4.82;2.28;;;18.50;99.90;;;;;;5061824;28;20286;-86
2023/08/03 08:21:16;;;;;;;7.65;2.38;;;18.50;99.90;;;;;;5074187;28;20219;-90
2023/08/03 08:23:47;;;;;;;4.90;2.22;;;18.50;99.90;;;;;;5130112;27;20221;-88
2023/08/03 08:26:22;;;;;;;5.32;1.98;;;18.40;99.90;;;;;;5147470;27;20223;-88
2023/08/03 08:31:44;;;;;;;5.03;1.65;;;18.50;99.90;;;;;;5177993;27;20720;-87
2023/08/03 08:34:19;;;;;;;6.40;1.85;;;18.50;99.90;;;;;;5178059;27;20184;-87
2023/08/03 08:39:36;;;;;;;4.60;1.73;;;18.40;99.90;;;;;;5148750;27;20190;-88
2023/08/03 08:42:15;;;;;;;5.47;2.10;;;18.40;99.90;;;;;;5151025;27;20200;-87
2023/08/03 08:47:58;;;;;;;5.72;1.80;;;18.40;99.90;;;;;;5156327;27;20257;-87
2023/08/03 08:50:38;;;;;;;3.83;1.80;;;18.40;99.90;;;;;;5158618;27;20269;-88
2023/08/03 08:53:10;;;;;;;5.32;2.05;;;18.40;99.90;;;;;;5146893;27;20238;-89
2023/08/03 09:01:21;;;;;;;7.05;2.10;;;18.30;99.90;;;;;;5171778;27;20227;-88
2023/08/03 09:04:09;;;;;;;6.15;2.10;;;18.40;99.90;;;;;;5178618;27;20213;-87
2023/08/03 09:06:52;;;;;;;5.30;1.90;;;18.30;99.90;;;;;;5164339;27;20190;-89
2023/08/03 09:18:08;;;;;;;6.78;2.13;;;18.30;99.90;;;;;;5147262;27;20309;-89
2023/08/03 09:20:46;;;;;;;6.18;2.00;;;18.30;99.90;;;;;;5148466;27;20194;-90
2023/08/03 09:23:36;;;;;;;7.00;2.63;;;18.30;99.90;;;;;;5127315;27;20305;-87
2023/08/03 09:26:08;;;;;;;5.63;2.58;;;18.30;99.90;;;;;;5131791;27;20190;-89
2023/08/03 09:40:53;;;;;;;6.47;1.90;;;18.20;99.90;;;;;;5164281;27;20200;-86
2023/08/03 09:43:51;;;;;;;6.15;2.03;;;18.20;99.90;;;;;;5131556;27;20217;-86
2023/08/03 09:46:41;;;;;;;5.95;2.53;;;18.10;99.90;;;;;;5169671;27;20228;-88
2023/08/03 09:49:16;;;;;;;5.90;2.80;;;18.10;99.90;;;;;;5178672;27;20204;-89
2023/08/03 09:52:01;;;;;;;7.22;3.17;;;18.10;99.90;;;;;;5163382;27;20197;-87
2023/08/03 10:09:14;;;;;;;4.18;2.00;;;18.00;99.90;;;;;;5158471;27;20193;-89
2023/08/03 10:14:37;;;;;;;5.50;2.50;;;17.90;99.90;;;;;;5154183;27;20201;-88
2023/08/03 10:17:20;;;;;;;6.47;2.50;;;18.00;99.90;;;;;;5140497;27;20225;-88
2023/08/03 10:20:13;;;;;;;6.90;2.20;;;17.90;99.90;;;;;;5137713;27;20189;-88
2023/08/03 10:23:19;;;;;;;6.32;2.15;;;17.90;99.90;;;;;;5139719;28;20229;-90
2023/08/03 10:25:58;;;;;;;5.90;2.38;;;17.80;99.90;;;;;;5121708;28;20193;-88
2023/08/03 10:28:30;;;;;;;5.57;2.60;;;17.80;99.90;;;;;;5141949;27;20208;-87
2023/08/03 10:31:18;;;;;;;4.80;2.20;;;17.80;99.90;;;;;;5142308;27;20196;-87
2023/08/03 10:34:30;;;;;;;5.15;2.13;;;17.80;99.90;;;;;;5138989;27;20196;-86
2023/08/03 10:37:01;;;;;;;5.13;2.15;;;17.80;99.90;;;;;;5163353;27;20257;-89
2023/08/03 10:40:03;;;;;;;5.93;2.28;;;17.80;99.90;;;;;;5139879;27;20194;-88
2023/08/03 10:42:36;;;;;;;5.82;2.33;;;17.80;99.90;;;;;;5142485;28;20224;-88
2023/08/03 10:48:43;;;;;;;4.80;2.03;;;17.70;99.90;;;;;;5144100;27;20194;-89
2023/08/03 10:51:48;;;;;;;4.45;2.22;;;17.70;99.90;;;;;;5143210;27;20220;-88
2023/08/03 10:54:32;;;;;;;6.72;2.20;;;17.70;99.90;;;;;;5133751;28;20197;-88
2023/08/03 10:57:08;;;;;;;5.07;2.20;;;17.70;99.90;;;;;;5153957;27;20242;-89
2023/08/03 10:59:46;;;;;;;8.88;2.50;;;17.70;99.90;;;;;;5153933;27;20277;-87
2023/08/03 11:02:19;;;;;;;8.45;2.90;;;17.70;99.90;;;;;;5152972;27;20227;-89
2023/08/03 11:04:52;;;;;;;5.57;2.70;;;17.60;99.90;;;;;;5152919;28;20730;-88
2023/08/03 11:07:30;;;;;;;8.02;2.17;;;17.60;99.90;;;;;;5157137;27;20185;-89
2023/08/03 11:10:22;;;;;;;4.97;2.15;;;17.60;99.90;;;;;;5171667;27;20184;-89
2023/08/03 11:15:46;;;;;;;3.78;2.42;;;17.60;99.90;;;;;;5171683;27;20193;-88
2023/08/03 11:18:20;;;;;;;6.05;3.50;;;17.60;99.90;;;;;;5177298;27;20221;-89
2023/08/03 11:21:00;;;;;;;7.63;3.20;;;17.50;99.90;;;;;;5175988;27;20189;-87
2023/08/03 11:23:34;;;;;;;8.50;4.72;;;17.50;99.90;;;;;;5162851;27;20221;-89
2023/08/03 11:33:09;;;;;;;8.90;3.40;;;17.50;99.90;;;;;;5123671;27;20686;-90
2023/08/03 11:35:42;;;;;;;5.93;3.03;;;17.40;99.90;;;;;;5149789;27;20193;-89
2023/08/03 11:38:13;;;;;;;6.70;2.83;;;17.40;99.90;;;;;;5140188;27;20193;-89
2023/08/03 11:40:55;;;;;;;6.28;2.47;;;17.40;99.90;;;;;;5141420;27;20193;-88
2023/08/03 11:43:29;;;;;;;5.32;2.35;;;17.40;99.90;;;;;;5141917;27;20250;-89
2023/08/03 11:46:00;;;;;;;6.20;2.50;;;17.30;99.90;;;;;;5138477;27;20314;-89
2023/08/03 11:51:56;;;;;;;5.78;2.65;;;17.30;99.90;;;;;;5143564;27;20194;-89
2023/08/03 11:55:04;;;;;;;4.72;2.33;;;17.30;99.90;;;;;;5147432;27;20198;-90
2023/08/03 11:58:14;;;;;;;5.53;2.30;;;17.20;99.90;;;;;;5066233;28;20176;-89
2023/08/03 12:00:49;;;;;;;4.88;2.13;;;17.20;99.90;;;;;;5104251;27;20269;-89
2023/08/03 12:03:42;;;;;;;4.60;2.17;;;17.10;99.90;;;;;;5162376;27;20208;-89
2023/08/03 12:06:47;;;;;;;5.55;2.25;;;17.10;99.90;;;;;;5168293;27;20193;-90
2023/08/03 12:12:42;;;;;;;;;;;;;;;;;;;;;
2023/08/03 12:15:20;;;;;;;3.45;2.00;;;17.10;99.90;;;;;;5149640;27;20726;-87
2023/08/03 12:17:58;;;;;;;5.18;2.10;;;17.10;99.90;;;;;;5159464;27;20229;-91
2023/08/03 12:20:35;;;;;;;6.10;2.30;;;17.20;99.90;;;;;;5172359;27;20185;-89
2023/08/03 12:23:13;;;;;;;4.53;1.75;;;17.10;99.90;;;;;;5171536;27;20651;-89
2023/08/03 12:26:17;;;;;;;4.30;1.92;;;17.10;99.90;;;;;;5171657;27;20246;-88
2023/08/03 12:28:54;;;;;;;6.22;1.90;;;17.10;99.90;;;;;;5160889;27;20193;-87
2023/08/03 12:34:36;;;;;;;4.10;1.85;;;17.00;99.90;;;;;;5142319;27;20209;-92
2023/08/03 12:37:17;;;;;;;5.35;1.92;;;17.00;99.90;;;;;;5159887;27;20257;-87
2023/08/03 12:40:20;;;;;;;6.15;2.38;;;17.00;99.90;;;;;;5161540;27;20205;-88
2023/08/03 12:43:26;;;;;;;5.95;1.90;;;17.00;99.90;;;;;;5146915;27;20181;-90
2023/08/03 12:46:26;;;;;;;4.55;1.80;;;17.00;99.90;;;;;;5167955;27;20303;-90
2023/08/03 12:51:57;;;;;;;4.85;1.92;;;17.00;99.90;;;;;;5166331;27;20227;-92
2023/08/03 12:54:38;;;;;;;3.97;1.63;;;17.00;99.90;;;;;;5154927;27;20194;-90
2023/08/03 12:57:28;;;;;;;8.40;2.58;;;17.00;99.90;;;;;;5143100;27;20189;-89
2023/08/03 13:00:14;;;;;;;5.03;2.00;;;16.90;99.90;;;;;;5145594;27;20201;-90
2023/08/03 13:05:39;;;;;;;4.80;1.77;;;16.90;99.90;;;;;;5168047;27;20354;-89
2023/08/03 13:08:16;;;;;;;5.35;1.90;;;16.90;99.90;;;;;;5151910;27;20280;-89
2023/08/03 13:10:54;;;;;;;4.35;2.03;;;16.90;99.90;;;;;;5157773;27;20268;-89
2023/08/03 13:13:51;;;;;;;6.30;2.20;;;16.90;99.90;;;;;;5134045;27;20194;-88
2023/08/03 13:19:33;;;;;;;5.20;2.00;;;16.90;99.90;;;;;;5151879;27;20180;-88
2023/08/03 13:22:18;;;;;;;4.95;2.08;;;16.90;99.90;;;;;;5142097;27;20207;-88
2023/08/03 13:27:42;;;;;;;4.10;1.88;;;16.80;99.90;;;;;;5151306;27;20190;-87
2023/08/03 13:30:19;;;;;;;4.10;1.98;;;16.80;99.90;;;;;;5150818;27;20261;-87
2023/08/03 13:36:03;;;;;;;5.32;2.00;;;16.80;99.90;;;;;;5151492;27;20245;-87
2023/08/03 13:41:28;;;;;;;5.85;2.20;;;16.80;99.90;;;;;;5168693;27;20211;-89
2023/08/03 13:47:02;;;;;;;5.50;2.28;;;16.70;99.90;;;;;;5157159;27;20221;-90
2023/08/03 13:49:41;;;;;;;5.05;2.17;;;16.70;99.90;;;;;;5155899;27;20198;-88
2023/08/03 13:55:09;;;;;;;5.00;1.90;;;16.70;99.90;;;;;;5157353;27;20194;-89
2023/08/03 14:00:27;;;;;;;5.53;1.98;;;16.70;99.90;;;;;;5146794;27;20190;-89
2023/08/03 14:03:03;;;;;;;4.50;2.13;;;16.70;99.90;;;;;;5142421;27;20204;-90
2023/08/03 14:06:02;;;;;;;6.70;2.60;;;16.70;99.90;;;;;;5170103;27;20592;-89
2023/08/03 14:08:41;;;;;;;4.40;2.10;;;16.70;99.90;;;;;;5173230;27;20269;-90
2023/08/03 14:11:12;;;;;;;7.15;2.60;;;16.70;99.90;;;;;;5169957;27;21866;-89
2023/08/03 14:13:43;;;;;;;4.43;2.42;;;16.70;99.90;;;;;;5145393;27;20190;-89
2023/08/03 14:16:17;;;;;;;4.95;2.08;;;16.70;99.90;;;;;;5117441;28;20198;-87
2023/08/03 14:18:49;;;;;;;6.68;2.38;;;16.60;99.90;;;;;;5157757;27;20196;-90
2023/08/03 14:21:21;;;;;;;5.05;2.33;;;16.50;99.90;;;;;;5153690;27;20219;-89
2023/08/03 14:23:55;;;;;;;6.43;2.70;;;16.50;99.90;;;;;;5158196;27;20201;-89
2023/08/03 14:26:26;;;;;;;6.07;2.80;;;16.50;99.90;;;;;;5156502;27;20277;-88
2023/08/03 14:29:00;;;;;;;5.90;2.65;;;16.50;99.90;;;;;;5141990;27;20189;-89
2023/08/03 14:31:31;;;;;;;4.97;2.58;;;16.50;99.90;;;;;;5141305;27;20197;-89
2023/08/03 14:34:02;;;;;;;5.22;2.47;;;16.50;99.90;;;;;;5154434;27;20199;-87
2023/08/03 14:36:32;;;;;;;5.50;2.85;;;16.50;99.90;;;;;;5152321;27;20193;-89
2023/08/03 14:39:06;;;;;;;5.05;2.85;;;16.40;99.90;;;;;;5133171;27;20554;-88
2023/08/03 14:41:37;;;;;;;6.35;3.00;;;16.40;99.90;;;;;;5141882;27;20541;-91
2023/08/03 14:44:08;;;;;;;6.63;3.28;;;16.40;99.90;;;;;;5149104;27;20676;-90
2023/08/03 14:46:39;;;;;;;8.30;3.28;;;16.40;99.90;;;;;;5133800;27;20214;-90
2023/08/03 14:49:10;;;;;;;8.43;3.45;;;16.40;99.90;;;;;;5147954;27;20198;-90
2023/08/03 14:51:42;;;;;;;6.65;3.00;;;16.30;99.90;;;;;;5158615;27;20201;-89
2023/08/03 14:54:15;;;;;;;8.68;3.80;;;16.30;99.90;;;;;;5155961;27;20713;-88
2023/08/03 14:56:46;;;;;;;6.18;3.22;;;16.30;99.90;;;;;;5144264;27;20190;-89
2023/08/03 14:59:17;;;;;;;7.75;3.58;;;16.30;99.90;;;;;;5149829;27;20204;-89
2023/08/03 15:01:48;;;;;;;7.10;3.67;;;16.30;99.90;;;;;;5150448;27;20233;-86
2023/08/03 15:04:19;;;;;;;7.85;3.88;;;16.20;99.90;;;;;;5145494;27;20210;-90
2023/08/03 15:06:50;;;;;;;5.90;3.35;;;16.20;99.90;;;;;;5123876;27;20202;-90
2023/08/03 15:09:24;;;;;;;6.15;4.00;;;16.20;99.90;;;;;;5153955;27;20290;-89
2023/08/03 15:11:54;;;;;;;6.60;3.65;;;16.20;99.90;;;;;;5143645;27;20604;-90
2023/08/03 15:14:26;;;;;;;7.38;4.22;;;16.10;99.90;;;;;;5141596;27;20198;-90
2023/08/03 15:16:57;;;;;;;6.90;4.38;;;16.10;99.90;;;;;;5140552;27;20222;-90
2023/08/03 15:19:28;;;;;;;8.98;4.47;;;16.10;99.90;;;;;;5157173;27;20193;-92
2023/08/03 15:21:59;;;;;;;10.07;3.83;;;16.10;99.90;;;;;;5151616;27;20200;-89
2023/08/03 15:24:32;;;;;;;7.80;4.30;;;16.00;99.90;;;;;;5136811;27;20277;-89
2023/08/03 15:27:05;;;;;;;8.10;4.60;;;16.00;99.90;;;;;;5136411;27;20201;-90
2023/08/03 15:29:39;;;;;;;7.63;4.28;;;16.00;99.90;;;;;;5140818;27;20671;-90
2023/08/03 15:32:10;;;;;;;8.65;4.40;;;15.90;99.90;;;;;;5152999;27;20202;-90
2023/08/03 15:34:43;;;;;;;10.75;4.55;;;15.90;99.90;;;;;;5136435;27;20197;-90
2023/08/03 15:37:14;;;;;;;7.15;3.97;;;15.90;99.90;;;;;;5136866;27;20190;-90
2023/08/03 15:39:49;;;;;;;8.93;4.25;;;15.90;99.90;;;;;;5145615;27;20201;-91
2023/08/03 15:42:21;;;;;;;7.65;4.00;;;15.90;99.90;;;;;;5139736;27;20189;-91
2023/08/03 15:44:52;;;;;;;7.80;3.97;;;15.80;99.90;;;;;;5155510;27;20209;-91
2023/08/03 15:47:22;;;;;;;8.80;4.10;;;15.80;99.90;;;;;;5157104;27;20193;-90
2023/08/03 15:49:53;;;;;;;6.53;3.90;;;15.80;99.90;;;;;;5141581;27;20202;-90
2023/08/03 15:52:24;;;;;;;7.68;3.90;;;15.80;99.90;;;;;;5136668;27;20243;-90
2023/08/03 15:54:58;;;;;;;8.80;4.20;;;15.80;99.90;;;;;;5136308;27;20296;-90
2023/08/03 15:57:29;;;;;;;7.18;4.15;;;15.70;99.90;;;;;;5153015;27;20197;-93
2023/08/03 16:00:03;;;;;;;8.38;4.70;;;15.60;99.90;;;;;;5126270;27;20204;-90
2023/08/03 16:02:34;;;;;;;8.27;4.43;;;15.60;99.90;;;;;;5164446;27;20197;-90
2023/08/03 16:05:05;;;;;;;8.73;4.18;;;15.60;99.90;;;;;;5158283;27;20683;-91
2023/08/03 16:07:36;;;;;;;6.82;4.25;;;15.50;99.90;;;;;;5156324;27;20238;-88
2023/08/03 16:10:10;;;;;;;7.00;4.38;;;15.50;99.90;;;;;;5155060;27;20196;-90